Time;durP1;ratioP1;P1;durP2;ratioP2;P2;SDS_P1;SDS_P2;PMS_P1;PMS_P2;Temp;Humidity;BMP_temperature;BMP_pressure;BME280_temperature;BME280_humidity;BME280_pressure;Samples;Min_cycle;Max_cycle;Signal;HPM_P1;HPM_P2
2023/12/28 00:00:59;;;;;;;3.78;2.70;;;6.40;83.70;;;;;;5062943;28;20051;-78
2023/12/28 00:03:52;;;;;;;3.50;2.85;;;6.40;83.70;;;;;;5086623;28;20180;-78
2023/12/28 00:06:40;;;;;;;3.42;2.50;;;6.60;82.40;;;;;;5071439;28;20098;-79
2023/12/28 00:09:27;;;;;;;4.88;2.70;;;6.80;81.10;;;;;;5097126;28;20117;-79
2023/12/28 00:12:15;;;;;;;3.95;2.75;;;6.70;80.40;;;;;;5075711;28;20044;-79
2023/12/28 00:15:06;;;;;;;6.53;2.88;;;6.70;80.80;;;;;;5066648;28;20221;-79
2023/12/28 00:17:54;;;;;;;2.92;2.38;;;6.60;81.00;;;;;;5066152;28;20126;-79
2023/12/28 00:20:45;;;;;;;3.53;2.50;;;6.40;81.30;;;;;;5097228;28;20085;-81
2023/12/28 00:23:32;;;;;;;4.45;2.45;;;6.30;82.80;;;;;;5089800;28;20043;-81
2023/12/28 00:26:21;;;;;;;5.95;2.72;;;6.40;82.30;;;;;;5056407;28;20055;-79
2023/12/28 00:29:08;;;;;;;4.10;2.63;;;6.50;82.70;;;;;;5087707;28;20048;-79
2023/12/28 00:31:56;;;;;;;5.20;3.05;;;6.70;81.00;;;;;;5067284;28;20067;-78
2023/12/28 00:34:43;;;;;;;5.40;2.75;;;6.60;80.90;;;;;;5085699;28;20044;-79
2023/12/28 00:37:30;;;;;;;3.15;2.55;;;6.60;80.50;;;;;;5078673;28;20700;-82
2023/12/28 00:40:31;;;;;;;3.35;2.65;;;6.50;81.90;;;;;;5083577;28;20040;-80
2023/12/28 00:43:23;;;;;;;4.32;2.50;;;6.40;81.50;;;;;;5085664;28;20040;-80
2023/12/28 00:46:15;;;;;;;3.17;2.30;;;6.50;82.10;;;;;;5086880;28;20024;-76
2023/12/28 00:49:11;;;;;;;4.32;2.45;;;6.40;83.00;;;;;;5097886;28;20115;-78
2023/12/28 00:52:04;;;;;;;3.28;2.58;;;6.40;83.00;;;;;;5084246;28;20044;-77
2023/12/28 00:54:57;;;;;;;5.10;2.80;;;6.30;83.60;;;;;;5090574;28;20158;-81
2023/12/28 00:57:47;;;;;;;3.33;2.55;;;6.30;84.10;;;;;;5098063;28;20256;-82
2023/12/28 01:00:41;;;;;;;4.75;2.58;;;6.10;84.90;;;;;;5077362;28;20075;-81
2023/12/28 01:03:37;;;;;;;3.83;2.78;;;5.80;85.90;;;;;;5088392;28;20052;-81
2023/12/28 01:06:32;;;;;;;4.63;3.00;;;5.50;87.90;;;;;;5088396;28;20060;-80
2023/12/28 01:09:22;;;;;;;5.10;2.85;;;5.40;89.10;;;;;;5093011;28;20071;-81
2023/12/28 01:12:10;;;;;;;4.57;2.83;;;5.60;89.30;;;;;;5087719;28;20044;-77
2023/12/28 01:15:11;;;;;;;6.35;3.03;;;5.60;89.10;;;;;;5092304;28;20071;-78
2023/12/28 01:18:01;;;;;;;4.70;3.13;;;5.40;89.40;;;;;;5082669;28;20055;-81
2023/12/28 01:21:02;;;;;;;4.18;2.80;;;5.30;90.20;;;;;;5100624;28;20078;-80
2023/12/28 01:23:49;;;;;;;5.40;2.78;;;5.10;90.20;;;;;;5085587;28;20542;-78
2023/12/28 01:26:36;;;;;;;3.80;2.70;;;5.30;90.00;;;;;;5089748;28;20079;-79
2023/12/28 01:29:29;;;;;;;4.97;2.80;;;5.40;89.70;;;;;;5091302;28;20524;-81
2023/12/28 01:32:20;;;;;;;5.05;2.70;;;5.50;88.40;;;;;;5088996;28;20051;-80
2023/12/28 01:35:08;;;;;;;2.08;1.90;;;5.30;88.90;;;;;;5091164;28;20563;-79
2023/12/28 01:38:05;;;;;;;4.90;2.65;;;5.30;88.40;;;;;;5086023;28;20043;-79
2023/12/28 01:40:55;;;;;;;3.97;2.75;;;5.60;88.40;;;;;;5071034;28;20040;-79
2023/12/28 01:43:45;;;;;;;5.32;3.03;;;5.70;88.00;;;;;;5094575;28;20044;-79
2023/12/28 01:46:34;;;;;;;4.25;2.90;;;5.70;87.80;;;;;;5093228;28;20487;-80
2023/12/28 01:49:23;;;;;;;4.65;2.47;;;5.40;87.80;;;;;;5088824;28;20087;-81
2023/12/28 01:52:10;;;;;;;3.55;2.70;;;5.10;90.00;;;;;;5080342;28;20044;-79
2023/12/28 01:54:57;;;;;;;4.82;2.90;;;4.90;90.30;;;;;;5072543;28;20048;-78
2023/12/28 01:57:49;;;;;;;3.90;2.67;;;4.80;90.90;;;;;;5097337;28;20030;-77
2023/12/28 02:00:38;;;;;;;4.63;2.75;;;4.90;90.80;;;;;;5093621;28;20047;-79
2023/12/28 02:03:29;;;;;;;3.67;2.60;;;5.10;90.70;;;;;;5096923;28;20044;-78
2023/12/28 02:06:16;;;;;;;3.67;2.95;;;5.30;90.40;;;;;;5099080;28;20044;-81
2023/12/28 02:09:06;;;;;;;3.25;2.72;;;5.40;90.70;;;;;;5097868;28;20581;-83
2023/12/28 02:11:54;;;;;;;4.88;2.30;;;5.60;90.20;;;;;;5085051;28;20516;-82
2023/12/28 02:14:46;;;;;;;4.03;2.58;;;5.90;89.10;;;;;;5085914;28;20442;-77
2023/12/28 02:17:54;;;;;;;4.40;2.20;;;6.10;87.90;;;;;;5083416;28;20036;-78
2023/12/28 02:20:44;;;;;;;3.45;2.28;;;6.20;87.50;;;;;;5095228;28;20040;-80
2023/12/28 02:23:36;;;;;;;2.95;2.05;;;6.30;87.00;;;;;;5091988;28;20059;-80
2023/12/28 02:26:25;;;;;;;2.10;1.92;;;6.40;86.80;;;;;;5077174;28;20111;-82
2023/12/28 02:29:16;;;;;;;3.80;2.22;;;6.50;86.30;;;;;;5089703;28;20079;-80
2023/12/28 02:32:09;;;;;;;4.00;2.10;;;6.60;85.20;;;;;;5082709;28;20049;-83
2023/12/28 02:35:16;;;;;;;2.17;1.95;;;6.60;85.70;;;;;;5087416;28;20089;-79
2023/12/28 02:38:08;;;;;;;3.30;1.83;;;6.50;85.90;;;;;;5088490;28;20055;-80
2023/12/28 02:40:57;;;;;;;3.33;2.47;;;6.40;85.60;;;;;;5091752;28;20253;-79
2023/12/28 02:43:46;;;;;;;4.07;2.58;;;6.50;84.40;;;;;;5097764;28;20056;-78
2023/12/28 02:46:36;;;;;;;3.40;2.67;;;6.60;83.30;;;;;;5082625;28;20166;-81
2023/12/28 02:49:23;;;;;;;4.68;2.53;;;6.70;82.80;;;;;;5097234;28;20693;-81
2023/12/28 02:52:11;;;;;;;3.88;2.60;;;6.80;81.60;;;;;;5076835;28;20091;-76
2023/12/28 02:55:01;;;;;;;2.85;1.92;;;6.90;81.50;;;;;;5106170;28;20044;-78
2023/12/28 02:57:50;;;;;;;2.80;2.30;;;6.90;81.80;;;;;;5090317;28;20032;-80
2023/12/28 03:00:51;;;;;;;3.92;2.90;;;6.90;81.10;;;;;;5091933;28;20762;-78
2023/12/28 03:03:38;;;;;;;6.38;2.95;;;7.00;80.80;;;;;;5096468;28;20413;-78
2023/12/28 03:06:26;;;;;;;3.00;1.80;;;7.00;80.90;;;;;;5097838;28;20544;-81
2023/12/28 03:09:13;;;;;;;2.72;2.15;;;6.90;81.40;;;;;;5101044;28;20043;-79
2023/12/28 03:12:01;;;;;;;3.28;2.05;;;7.00;81.10;;;;;;5087594;28;20040;-80
2023/12/28 03:14:48;;;;;;;2.92;1.90;;;7.20;80.80;;;;;;5091673;28;20054;-81
2023/12/28 03:17:36;;;;;;;3.92;2.30;;;7.10;80.80;;;;;;5094036;28;20070;-80
2023/12/28 03:20:24;;;;;;;3.65;2.53;;;7.10;81.10;;;;;;5086662;28;20118;-79
2023/12/28 03:23:12;;;;;;;4.50;2.38;;;7.00;80.50;;;;;;5089918;28;20063;-82
2023/12/28 03:26:01;;;;;;;3.80;2.33;;;7.10;80.90;;;;;;5104884;28;20112;-81
2023/12/28 03:28:48;;;;;;;3.10;2.40;;;7.20;80.00;;;;;;5083402;28;20040;-80
2023/12/28 03:31:44;;;;;;;3.67;2.70;;;7.30;79.50;;;;;;5088046;28;20112;-80
2023/12/28 03:34:31;;;;;;;3.13;2.30;;;7.20;80.10;;;;;;5100181;28;20119;-80
2023/12/28 03:37:19;;;;;;;3.20;2.20;;;7.10;81.00;;;;;;5092814;28;20046;-82
2023/12/28 03:40:07;;;;;;;2.65;2.30;;;7.20;80.50;;;;;;5085950;28;20044;-81
2023/12/28 03:42:54;;;;;;;3.33;2.17;;;7.20;80.00;;;;;;5079367;28;20058;-80
2023/12/28 03:45:41;;;;;;;3.80;2.55;;;7.40;80.20;;;;;;5094109;28;20137;-81
2023/12/28 03:48:29;;;;;;;4.80;2.72;;;7.40;79.80;;;;;;5081592;28;20044;-81
2023/12/28 03:51:19;;;;;;;4.20;2.20;;;7.50;78.90;;;;;;5073702;28;20052;-82
2023/12/28 03:54:13;;;;;;;3.80;2.22;;;7.50;78.90;;;;;;5098504;28;20115;-81
2023/12/28 03:57:00;;;;;;;5.53;2.70;;;7.50;79.40;;;;;;5095914;28;20043;-81
2023/12/28 03:59:48;;;;;;;3.13;2.30;;;7.50;78.50;;;;;;5091226;28;20066;-81
2023/12/28 04:02:36;;;;;;;3.30;2.00;;;7.70;77.50;;;;;;5080648;28;20036;-82
2023/12/28 04:05:23;;;;;;;2.28;1.95;;;7.90;77.10;;;;;;5062395;28;20040;-81
2023/12/28 04:08:10;;;;;;;3.83;1.83;;;7.90;76.50;;;;;;5085241;28;20060;-80
2023/12/28 04:10:58;;;;;;;3.58;2.20;;;7.80;77.20;;;;;;5077019;28;20641;-80
2023/12/28 04:13:51;;;;;;;3.58;1.90;;;7.70;77.30;;;;;;5082884;28;20052;-80
2023/12/28 04:16:38;;;;;;;3.10;2.20;;;7.70;77.40;;;;;;5092548;28;20043;-80
2023/12/28 04:19:27;;;;;;;3.17;2.30;;;7.70;77.50;;;;;;5069459;28;20129;-80
2023/12/28 04:22:25;;;;;;;2.38;1.95;;;7.80;77.00;;;;;;5088724;28;20396;-80
2023/12/28 04:25:18;;;;;;;2.45;2.05;;;7.80;76.80;;;;;;5082692;28;20040;-81
2023/12/28 04:28:06;;;;;;;3.42;2.22;;;7.90;76.70;;;;;;5086542;28;20295;-81
2023/12/28 04:30:57;;;;;;;5.18;2.65;;;7.80;76.80;;;;;;5095318;28;20040;-77
2023/12/28 04:33:44;;;;;;;3.83;2.20;;;7.90;76.70;;;;;;5093059;28;20067;-78
2023/12/28 04:36:32;;;;;;;3.83;2.60;;;8.00;76.30;;;;;;5095884;28;20116;-80
2023/12/28 04:39:21;;;;;;;6.53;2.60;;;8.00;76.70;;;;;;5090356;28;20106;-79
2023/12/28 04:42:08;;;;;;;8.75;3.08;;;8.00;77.10;;;;;;5078554;28;20059;-78
2023/12/28 04:44:56;;;;;;;7.47;2.60;;;8.00;77.10;;;;;;5094818;28;20051;-81
2023/12/28 04:47:47;;;;;;;7.95;2.72;;;8.10;77.00;;;;;;5093387;28;20036;-80
2023/12/28 04:50:34;;;;;;;4.97;2.80;;;8.10;77.20;;;;;;5092328;28;20400;-80
2023/12/28 04:53:25;;;;;;;3.95;2.40;;;8.10;77.50;;;;;;5074146;28;20193;-81
2023/12/28 04:56:12;;;;;;;3.53;2.03;;;8.10;77.60;;;;;;5090384;28;20043;-80
2023/12/28 04:59:00;;;;;;;3.15;1.90;;;8.10;77.60;;;;;;5089748;28;20040;-80
2023/12/28 05:01:48;;;;;;;3.42;2.40;;;8.10;77.30;;;;;;5087015;28;20037;-80
2023/12/28 05:04:39;;;;;;;2.80;2.40;;;8.00;78.20;;;;;;5091490;28;20063;-80
2023/12/28 05:07:30;;;;;;;4.90;3.03;;;8.00;78.50;;;;;;5084224;28;20059;-81
2023/12/28 05:10:17;;;;;;;4.07;2.58;;;8.00;78.50;;;;;;5097213;28;20043;-81
2023/12/28 05:13:04;;;;;;;4.80;2.35;;;8.00;78.80;;;;;;5084958;28;20080;-81
2023/12/28 05:15:51;;;;;;;2.55;2.35;;;8.00;78.10;;;;;;5096913;28;20122;-79
2023/12/28 05:18:40;;;;;;;1.90;1.63;;;8.00;78.80;;;;;;5076006;28;20052;-77
2023/12/28 05:21:29;;;;;;;5.53;2.80;;;8.00;79.50;;;;;;5095243;28;20045;-83
2023/12/28 05:24:17;;;;;;;2.80;2.08;;;8.00;79.90;;;;;;5100514;28;20112;-81
2023/12/28 05:27:07;;;;;;;3.42;2.00;;;8.00;80.20;;;;;;5069686;28;20065;-79
2023/12/28 05:29:54;;;;;;;4.50;2.10;;;8.10;80.10;;;;;;5095785;28;20120;-81
2023/12/28 05:32:41;;;;;;;3.40;2.00;;;8.10;80.70;;;;;;5091980;28;20040;-80
2023/12/28 05:35:31;;;;;;;2.85;1.90;;;8.20;80.50;;;;;;5089391;28;20058;-81
2023/12/28 05:38:21;;;;;;;5.10;2.38;;;8.20;80.80;;;;;;5091865;28;20046;-79
2023/12/28 05:41:11;;;;;;;2.88;2.10;;;8.30;80.70;;;;;;5078986;28;20716;-82
2023/12/28 05:43:59;;;;;;;2.70;1.67;;;8.30;81.60;;;;;;5086060;28;20060;-80
2023/12/28 05:46:52;;;;;;;2.65;1.80;;;8.20;81.00;;;;;;5106115;28;20275;-79
2023/12/28 05:49:44;;;;;;;3.00;2.25;;;8.30;81.10;;;;;;5088865;28;20450;-78
2023/12/28 05:52:32;;;;;;;4.18;1.95;;;8.40;81.20;;;;;;5075773;28;20472;-83
2023/12/28 05:55:22;;;;;;;3.47;1.90;;;8.30;82.00;;;;;;5091798;28;20044;-80
2023/12/28 05:58:09;;;;;;;3.47;1.73;;;8.30;82.60;;;;;;5092848;28;20051;-78
2023/12/28 06:00:59;;;;;;;2.53;1.92;;;8.30;83.30;;;;;;5088975;28;20048;-81
2023/12/28 06:03:49;;;;;;;4.65;1.85;;;8.30;84.10;;;;;;5078004;28;20039;-79
2023/12/28 06:06:40;;;;;;;2.92;2.00;;;8.10;84.60;;;;;;5069360;28;20067;-80
2023/12/28 06:09:27;;;;;;;3.15;1.92;;;8.10;85.60;;;;;;5097215;28;20408;-76
2023/12/28 06:12:15;;;;;;;4.25;1.92;;;8.10;86.70;;;;;;5105967;28;20050;-80
2023/12/28 06:15:05;;;;;;;3.08;1.98;;;8.10;87.40;;;;;;5091204;28;20083;-79
2023/12/28 06:17:53;;;;;;;4.03;2.20;;;8.20;88.30;;;;;;5096583;28;20049;-81
2023/12/28 06:20:40;;;;;;;4.07;2.15;;;8.20;88.90;;;;;;5101934;28;20047;-79
2023/12/28 06:23:28;;;;;;;4.13;2.30;;;8.10;89.40;;;;;;5092628;28;20054;-81
2023/12/28 06:26:15;;;;;;;6.75;2.25;;;8.10;90.00;;;;;;5067802;28;20028;-80
2023/12/28 06:29:06;;;;;;;2.53;2.10;;;8.10;90.30;;;;;;5073807;28;20063;-80
2023/12/28 06:31:58;;;;;;;2.50;2.30;;;8.10;90.70;;;;;;5088764;28;20047;-83
2023/12/28 06:34:45;;;;;;;3.28;2.13;;;8.10;91.00;;;;;;5086615;28;20047;-82
2023/12/28 06:37:37;;;;;;;4.82;2.22;;;8.00;91.90;;;;;;5099965;28;20059;-82
2023/12/28 06:40:26;;;;;;;2.08;1.70;;;8.00;92.40;;;;;;5088423;28;20143;-79
2023/12/28 06:43:14;;;;;;;6.18;2.10;;;7.90;93.00;;;;;;5099829;28;20035;-78
2023/12/28 06:46:01;;;;;;;4.53;2.25;;;8.00;93.00;;;;;;5105609;28;20062;-76
2023/12/28 06:48:49;;;;;;;5.43;2.28;;;8.10;93.10;;;;;;5097480;28;20064;-77
2023/12/28 06:51:42;;;;;;;2.47;1.80;;;8.00;93.40;;;;;;5088522;28;20039;-80
2023/12/28 06:54:32;;;;;;;4.10;2.13;;;8.00;94.00;;;;;;5082980;28;20044;-77
2023/12/28 06:57:23;;;;;;;5.53;2.40;;;8.20;93.70;;;;;;5068730;28;20101;-79
2023/12/28 07:00:11;;;;;;;3.42;2.45;;;8.20;93.80;;;;;;5098213;28;20052;-78
2023/12/28 07:03:07;;;;;;;2.08;1.90;;;8.30;93.60;;;;;;5099037;28;20054;-80
2023/12/28 07:05:58;;;;;;;4.28;2.10;;;8.20;93.40;;;;;;5090409;28;20043;-78
2023/12/28 07:08:45;;;;;;;4.13;2.05;;;8.20;93.90;;;;;;5094605;28;20428;-79
2023/12/28 07:11:35;;;;;;;7.10;2.10;;;8.10;94.00;;;;;;5079348;28;20100;-80
2023/12/28 07:14:22;;;;;;;4.38;2.13;;;8.10;94.00;;;;;;5082395;28;20054;-79
2023/12/28 07:17:11;;;;;;;5.75;2.78;;;8.40;93.40;;;;;;5088295;28;20066;-79
2023/12/28 07:19:59;;;;;;;3.90;1.95;;;8.50;93.30;;;;;;5068402;28;20055;-78
2023/12/28 07:22:47;;;;;;;3.92;2.40;;;8.50;93.60;;;;;;5086473;28;20048;-81
2023/12/28 07:25:39;;;;;;;4.07;2.30;;;8.60;93.60;;;;;;5094750;28;20142;-81
2023/12/28 07:28:26;;;;;;;3.28;2.20;;;8.70;93.50;;;;;;5086165;28;20040;-81
2023/12/28 07:31:26;;;;;;;3.30;2.03;;;8.80;93.50;;;;;;5079113;28;20039;-82
2023/12/28 07:34:13;;;;;;;3.70;1.95;;;9.10;92.80;;;;;;5084370;28;20050;-82
2023/12/28 07:37:04;;;;;;;4.53;1.80;;;9.20;92.70;;;;;;5102134;28;20059;-78
2023/12/28 07:39:54;;;;;;;3.03;1.90;;;9.30;92.50;;;;;;5085688;28;20189;-79
2023/12/28 07:42:44;;;;;;;3.72;1.92;;;9.30;92.60;;;;;;5087592;28;20436;-78
2023/12/28 07:45:32;;;;;;;5.05;2.10;;;9.30;92.60;;;;;;5088628;28;20133;-79
2023/12/28 07:48:22;;;;;;;7.30;2.00;;;9.30;92.70;;;;;;5095799;28;20070;-80
2023/12/28 07:51:12;;;;;;;3.92;2.42;;;9.40;93.10;;;;;;5095809;28;20048;-80
2023/12/28 07:54:15;;;;;;;;;;;;;;;;;;;;;
2023/12/28 07:57:14;;;;;;;5.03;1.90;;;9.50;93.00;;;;;;5092178;28;20043;-80
2023/12/28 08:00:03;;;;;;;4.38;1.95;;;9.50;92.90;;;;;;5070390;28;20514;-81
2023/12/28 08:02:56;;;;;;;4.63;2.15;;;9.50;92.80;;;;;;5081636;28;20032;-81
2023/12/28 08:05:44;;;;;;;3.92;2.05;;;9.50;93.10;;;;;;5082613;28;20032;-80
2023/12/28 08:08:41;;;;;;;4.20;1.92;;;9.40;92.90;;;;;;5071573;28;20044;-81
2023/12/28 08:11:34;;;;;;;5.43;2.13;;;9.40;92.80;;;;;;5063604;28;20085;-82
2023/12/28 08:14:27;;;;;;;6.05;1.88;;;9.40;92.80;;;;;;5084472;28;20043;-83
2023/12/28 08:17:19;;;;;;;;;;;9.40;92.30;;;;;;5082430;28;20056;-83
2023/12/28 08:20:07;;;;;;;3.17;1.90;;;9.50;92.20;;;;;;5080410;28;20407;-80
2023/12/28 08:22:55;;;;;;;4.40;2.13;;;9.50;92.10;;;;;;5081157;28;20158;-82
2023/12/28 08:26:02;;;;;;;4.00;2.10;;;9.50;91.80;;;;;;5079567;28;20044;-81
2023/12/28 08:29:01;;;;;;;6.43;2.30;;;9.50;91.70;;;;;;5083517;28;20044;-80
2023/12/28 08:31:51;;;;;;;5.97;2.30;;;9.50;91.70;;;;;;5064793;28;20040;-80
2023/12/28 08:34:42;;;;;;;3.25;2.00;;;9.60;91.50;;;;;;5083272;28;20075;-77
2023/12/28 08:37:31;;;;;;;4.40;2.33;;;9.60;91.90;;;;;;5082022;28;20527;-80
2023/12/28 08:40:20;;;;;;;4.22;2.10;;;9.50;91.80;;;;;;5072586;28;20202;-78
2023/12/28 08:43:07;;;;;;;3.95;2.10;;;9.60;91.90;;;;;;5070348;28;20051;-78
2023/12/28 08:46:00;;;;;;;5.13;2.47;;;9.50;92.40;;;;;;5093317;28;20044;-78
2023/12/28 08:48:49;;;;;;;4.20;2.00;;;9.50;92.40;;;;;;5089306;28;20058;-79
2023/12/28 08:51:36;;;;;;;6.13;2.00;;;9.50;92.80;;;;;;5094278;28;20050;-76
2023/12/28 08:54:25;;;;;;;3.45;1.92;;;9.50;93.20;;;;;;5072129;28;20050;-79
2023/12/28 08:57:16;;;;;;;3.13;2.10;;;9.50;93.00;;;;;;5072515;28;20090;-79
2023/12/28 09:00:18;;;;;;;7.20;2.03;;;9.50;92.90;;;;;;5084002;28;20055;-77
2023/12/28 09:03:06;;;;;;;8.68;2.40;;;9.50;93.20;;;;;;5084351;28;20036;-78
2023/12/28 09:05:54;;;;;;;6.40;2.55;;;9.50;93.20;;;;;;5088244;28;20062;-77
2023/12/28 09:08:44;;;;;;;5.57;2.67;;;9.50;93.60;;;;;;5083323;28;20040;-77
2023/12/28 09:11:31;;;;;;;4.88;2.38;;;9.50;94.00;;;;;;5080158;28;20075;-77
2023/12/28 09:14:19;;;;;;;5.90;2.15;;;9.50;94.60;;;;;;5065036;28;20116;-78
2023/12/28 09:17:07;;;;;;;2.22;1.90;;;9.50;94.90;;;;;;5061714;28;20323;-76
2023/12/28 09:19:54;;;;;;;6.93;2.05;;;9.50;94.80;;;;;;5080118;28;20051;-80
2023/12/28 09:22:47;;;;;;;5.43;2.08;;;9.50;94.90;;;;;;5082544;28;20221;-78
2023/12/28 09:25:38;;;;;;;;;;;9.50;94.90;;;;;;5088127;28;20032;-78
2023/12/28 09:28:26;;;;;;;3.92;2.25;;;9.50;94.50;;;;;;5090721;28;20365;-79
2023/12/28 09:31:13;;;;;;;4.50;2.40;;;9.60;94.30;;;;;;5085731;28;20094;-79
2023/12/28 09:34:01;;;;;;;4.55;2.13;;;9.50;94.30;;;;;;5081845;28;20056;-79
2023/12/28 09:36:55;;;;;;;7.40;2.30;;;9.60;94.20;;;;;;5091185;28;20458;-77
2023/12/28 09:39:44;;;;;;;4.55;2.28;;;9.60;93.80;;;;;;5084394;28;20059;-78
2023/12/28 09:42:44;;;;;;;3.65;2.45;;;9.60;93.80;;;;;;5101675;28;20028;-78
2023/12/28 09:45:31;;;;;;;4.03;2.35;;;9.70;93.80;;;;;;5104341;28;20044;-81
2023/12/28 09:48:20;;;;;;;6.97;2.60;;;9.60;93.60;;;;;;5093744;28;20076;-79
2023/12/28 09:51:10;;;;;;;4.55;2.33;;;9.60;93.40;;;;;;5084858;28;20050;-79
2023/12/28 09:54:03;;;;;;;2.85;2.17;;;9.70;93.20;;;;;;5065885;28;20059;-78
2023/12/28 09:56:52;;;;;;;2.47;1.95;;;9.70;92.80;;;;;;5089188;28;20525;-78
2023/12/28 09:59:40;;;;;;;5.82;3.20;;;9.80;92.70;;;;;;5086587;28;20066;-77
2023/12/28 10:02:30;;;;;;;3.40;2.10;;;9.90;92.40;;;;;;5080310;28;20040;-78
2023/12/28 10:05:20;;;;;;;2.10;1.60;;;10.00;92.30;;;;;;5060111;28;20053;-78
2023/12/28 10:08:13;;;;;;;1.88;1.50;;;10.00;92.20;;;;;;5071182;28;20055;-78
2023/12/28 10:11:01;;;;;;;5.30;2.38;;;10.00;92.50;;;;;;5085410;28;20492;-78
2023/12/28 10:13:49;;;;;;;3.15;1.95;;;10.00;93.10;;;;;;5079357;28;20055;-79
2023/12/28 10:16:43;;;;;;;2.15;1.80;;;10.00;93.90;;;;;;5072902;28;20224;-78
2023/12/28 10:19:33;;;;;;;3.50;2.03;;;10.00;94.10;;;;;;5083231;28;20051;-78
2023/12/28 10:22:21;;;;;;;3.30;1.60;;;10.00;95.00;;;;;;5086275;28;20048;-78
2023/12/28 10:25:17;;;;;;;3.40;1.70;;;10.00;95.70;;;;;;5067429;28;20052;-81
2023/12/28 10:28:39;;;;;;;2.75;1.90;;;10.00;96.10;;;;;;5083945;28;20041;-79
2023/12/28 10:31:32;;;;;;;2.40;2.10;;;10.00;96.60;;;;;;5089729;28;20064;-78
2023/12/28 10:34:26;;;;;;;4.22;2.00;;;10.00;96.80;;;;;;5065362;28;20534;-78
2023/12/28 10:37:21;;;;;;;3.80;2.05;;;10.00;96.90;;;;;;5070541;28;20123;-80
2023/12/28 10:40:16;;;;;;;2.75;1.77;;;9.90;97.10;;;;;;5070336;28;20072;-77
2023/12/28 10:43:11;;;;;;;3.17;1.80;;;9.90;97.40;;;;;;5070717;28;20147;-82
2023/12/28 10:45:58;;;;;;;3.15;1.95;;;10.00;97.90;;;;;;5067828;28;20055;-78
2023/12/28 10:48:55;;;;;;;5.57;2.15;;;10.00;98.60;;;;;;5107035;28;20032;-77
2023/12/28 10:51:52;;;;;;;2.65;1.83;;;10.00;99.10;;;;;;5107875;28;20036;-76
2023/12/28 10:54:57;;;;;;;4.30;1.80;;;10.10;99.80;;;;;;5107763;28;20117;-80
2023/12/28 10:58:41;;;;;;;3.80;1.98;;;10.10;99.90;;;;;;5093174;28;20204;-81
2023/12/28 11:01:51;;;;;;;4.07;2.00;;;10.10;99.90;;;;;;5074677;28;20044;-79
2023/12/28 11:04:53;;;;;;;3.42;1.95;;;10.10;99.90;;;;;;5060052;28;20909;-79
2023/12/28 11:07:57;;;;;;;5.13;1.83;;;10.10;99.90;;;;;;5081779;28;20047;-80
2023/12/28 11:11:01;;;;;;;3.28;2.13;;;10.10;99.90;;;;;;5079636;28;20131;-78
2023/12/28 11:13:51;;;;;;;3.72;2.20;;;10.10;99.90;;;;;;5085546;28;20059;-78
2023/12/28 11:17:24;;;;;;;3.45;1.95;;;10.10;99.90;;;;;;5067798;28;20048;-79
2023/12/28 11:20:10;;;;;;;4.07;2.40;;;10.10;99.90;;;;;;5076851;28;20040;-78
2023/12/28 11:23:01;;;;;;;5.10;2.58;;;10.10;99.90;;;;;;5061358;28;20511;-78
2023/12/28 11:25:48;;;;;;;3.85;1.90;;;10.10;99.90;;;;;;5077163;28;20047;-80
2023/12/28 11:28:54;;;;;;;;;;;;;;;;;;;;;
2023/12/28 11:32:04;;;;;;;6.03;3.05;;;10.20;99.90;;;;;;5077967;28;20572;-80
2023/12/28 11:35:15;;;;;;;2.17;1.70;;;10.20;99.90;;;;;;5055352;28;20048;-79
2023/12/28 11:38:19;;;;;;;2.95;1.95;;;10.20;99.90;;;;;;5086325;28;20135;-79
2023/12/28 11:41:32;;;;;;;4.03;1.83;;;10.10;99.90;;;;;;5070444;28;20052;-79
2023/12/28 11:44:40;;;;;;;3.00;2.20;;;10.10;99.90;;;;;;5063780;28;20047;-79
2023/12/28 11:48:26;;;;;;;;;;;;;;;;;;;;;
2023/12/28 11:51:37;;;;;;;2.30;2.08;;;10.00;99.90;;;;;;5087534;28;20051;-78
2023/12/28 11:54:34;;;;;;;4.22;2.20;;;10.00;99.90;;;;;;5088025;28;20039;-77
2023/12/28 11:57:24;;;;;;;3.35;2.33;;;10.00;99.90;;;;;;5076149;28;20043;-81
2023/12/28 12:00:16;;;;;;;3.58;2.10;;;10.00;99.90;;;;;;5070967;28;20385;-78
2023/12/28 12:03:06;;;;;;;3.05;1.90;;;10.00;99.90;;;;;;5080592;28;20746;-82
2023/12/28 12:06:07;;;;;;;4.63;2.10;;;10.00;99.90;;;;;;5066389;28;20100;-79
2023/12/28 12:08:56;;;;;;;3.35;2.03;;;10.00;99.90;;;;;;5065130;28;20048;-80
2023/12/28 12:11:43;;;;;;;2.35;1.90;;;10.00;99.90;;;;;;5078854;28;20036;-80
2023/12/28 12:14:31;;;;;;;5.72;2.42;;;10.10;99.90;;;;;;5089756;28;20115;-79
2023/12/28 12:17:32;;;;;;;3.72;2.22;;;10.00;99.90;;;;;;5105243;28;20079;-78
2023/12/28 12:20:21;;;;;;;3.38;2.17;;;10.00;99.90;;;;;;5085746;28;20036;-78
2023/12/28 12:23:12;;;;;;;3.80;1.95;;;10.00;99.90;;;;;;5086006;28;20044;-79
2023/12/28 12:26:06;;;;;;;5.35;2.22;;;10.00;99.90;;;;;;5085773;28;20052;-80
2023/12/28 12:28:56;;;;;;;3.00;1.83;;;10.00;99.90;;;;;;5086710;28;20036;-79
2023/12/28 12:31:46;;;;;;;4.75;2.83;;;9.90;99.90;;;;;;5083264;28;20067;-79
2023/12/28 12:34:34;;;;;;;2.78;2.20;;;9.90;99.90;;;;;;5075161;28;20060;-83
2023/12/28 12:37:30;;;;;;;4.85;2.03;;;9.90;99.90;;;;;;5077834;28;20033;-80
2023/12/28 12:40:36;;;;;;;6.22;2.22;;;9.90;99.90;;;;;;5076064;28;20471;-80
2023/12/28 12:43:34;;;;;;;5.00;2.17;;;9.80;99.90;;;;;;5074539;28;20427;-79
2023/12/28 12:46:28;;;;;;;4.22;2.20;;;9.90;99.90;;;;;;5068436;28;20453;-78
2023/12/28 12:49:28;;;;;;;4.38;3.08;;;9.90;99.90;;;;;;5060118;28;20055;-80
2023/12/28 12:52:15;;;;;;;3.05;2.33;;;9.80;99.90;;;;;;5080828;28;20041;-81
2023/12/28 12:55:22;;;;;;;5.20;2.58;;;9.80;99.90;;;;;;5078172;28;20066;-78
2023/12/28 12:58:17;;;;;;;5.07;2.35;;;9.80;99.90;;;;;;5065008;28;20432;-80
2023/12/28 13:01:07;;;;;;;4.13;2.22;;;9.80;99.90;;;;;;5064451;28;20050;-79
2023/12/28 13:03:56;;;;;;;4.30;2.30;;;9.80;99.90;;;;;;5082006;28;20734;-78
2023/12/28 13:06:47;;;;;;;4.13;2.40;;;9.80;99.90;;;;;;5082040;28;20465;-82
2023/12/28 13:09:57;;;;;;;5.07;2.78;;;9.80;99.90;;;;;;5082495;28;20036;-78
2023/12/28 13:12:59;;;;;;;2.78;2.20;;;9.70;99.90;;;;;;5062065;28;20091;-78
2023/12/28 13:15:56;;;;;;;3.83;2.45;;;9.70;99.90;;;;;;5064254;28;20164;-83
2023/12/28 13:18:54;;;;;;;3.35;2.17;;;9.60;99.90;;;;;;5060975;28;20068;-82
2023/12/28 13:21:43;;;;;;;4.10;2.40;;;9.60;99.90;;;;;;5047804;28;20094;-81
2023/12/28 13:24:39;;;;;;;3.20;2.40;;;9.60;99.90;;;;;;5048579;28;20526;-78
2023/12/28 13:27:28;;;;;;;4.47;2.30;;;9.50;99.90;;;;;;5065960;28;20091;-81
2023/12/28 13:30:37;;;;;;;4.07;2.60;;;9.40;99.90;;;;;;5064661;28;20044;-80
2023/12/28 13:33:32;;;;;;;9.32;3.35;;;9.30;99.90;;;;;;5066922;28;20339;-82
2023/12/28 13:36:44;;;;;;;4.55;3.10;;;9.20;99.90;;;;;;5058093;28;20541;-82
2023/12/28 13:39:41;;;;;;;5.22;2.50;;;9.20;99.90;;;;;;5058126;28;20037;-81
2023/12/28 13:42:42;;;;;;;2.60;2.37;;;9.20;99.90;;;;;;5036994;28;20049;-79
2023/12/28 13:45:46;;;;;;;4.72;2.30;;;9.20;99.90;;;;;;5060871;28;20385;-78
2023/12/28 13:48:44;;;;;;;3.60;2.38;;;9.20;99.90;;;;;;5057117;28;20045;-79
2023/12/28 13:51:35;;;;;;;4.43;2.17;;;9.20;99.90;;;;;;5053733;28;20040;-79
2023/12/28 13:54:53;;;;;;;5.60;2.15;;;9.20;99.90;;;;;;5063757;28;20044;-80
2023/12/28 13:57:58;;;;;;;3.45;2.25;;;9.10;99.90;;;;;;5067062;28;20095;-81
2023/12/28 14:01:04;;;;;;;3.75;2.72;;;9.10;99.90;;;;;;5064939;28;20067;-83
2023/12/28 14:03:57;;;;;;;3.88;2.38;;;9.10;99.90;;;;;;5059459;28;20179;-80
2023/12/28 14:06:48;;;;;;;3.75;2.40;;;9.10;99.90;;;;;;5055424;28;20159;-79
2023/12/28 14:09:38;;;;;;;3.53;2.30;;;9.10;99.90;;;;;;5053906;28;20056;-81
2023/12/28 14:12:44;;;;;;;3.65;2.28;;;9.10;99.90;;;;;;5042855;28;20048;-81
2023/12/28 14:15:34;;;;;;;3.05;2.30;;;9.00;99.90;;;;;;5064784;28;20628;-81
2023/12/28 14:18:39;;;;;;;5.43;2.58;;;8.90;99.90;;;;;;5068177;28;20056;-82
2023/12/28 14:21:43;;;;;;;3.33;2.67;;;8.80;99.90;;;;;;5061130;28;20059;-81
2023/12/28 14:24:39;;;;;;;3.35;2.42;;;8.80;99.90;;;;;;5065644;28;20080;-80
2023/12/28 14:27:30;;;;;;;3.85;2.85;;;8.80;99.90;;;;;;5040194;28;20682;-80
2023/12/28 14:30:26;;;;;;;5.70;2.38;;;8.80;99.90;;;;;;5063987;28;20045;-80
2023/12/28 14:33:20;;;;;;;3.92;2.40;;;8.80;99.90;;;;;;5055210;28;20420;-81
2023/12/28 14:36:35;;;;;;;4.47;2.50;;;8.80;99.90;;;;;;5071529;28;20047;-81
2023/12/28 14:39:28;;;;;;;7.10;3.20;;;8.80;99.90;;;;;;5048399;28;20056;-81
2023/12/28 14:42:16;;;;;;;15.38;5.28;;;8.80;99.90;;;;;;5067353;28;20044;-80
2023/12/28 14:45:04;;;;;;;5.78;2.67;;;8.80;99.90;;;;;;5070007;28;20157;-78
2023/12/28 14:47:54;;;;;;;4.30;2.80;;;8.80;99.90;;;;;;5088802;28;20036;-82
2023/12/28 14:50:41;;;;;;;3.50;2.55;;;8.80;99.90;;;;;;5080967;28;20064;-82
2023/12/28 14:53:35;;;;;;;5.97;2.70;;;8.80;99.90;;;;;;5073941;28;20047;-81
2023/12/28 14:56:26;;;;;;;6.30;2.88;;;8.80;99.90;;;;;;5060843;28;20126;-81
2023/12/28 14:59:31;;;;;;;3.28;2.30;;;8.80;99.90;;;;;;5077393;28;20044;-83
2023/12/28 15:02:35;;;;;;;3.90;2.53;;;8.80;99.90;;;;;;5086155;28;20048;-83
2023/12/28 15:05:28;;;;;;;4.63;3.30;;;8.80;99.90;;;;;;5071524;28;20036;-82
2023/12/28 15:08:15;;;;;;;3.83;2.92;;;8.80;99.90;;;;;;5061165;28;20093;-80
2023/12/28 15:11:11;;;;;;;4.47;3.30;;;8.70;99.90;;;;;;5075460;28;20067;-80
2023/12/28 15:14:00;;;;;;;5.35;2.63;;;8.70;99.90;;;;;;5086667;28;20101;-80